Time;durP1;ratioP1;P1;durP2;ratioP2;P2;SDS_P1;SDS_P2;PMS_P1;PMS_P2;Temp;Humidity;BMP_temperature;BMP_pressure;BME280_temperature;BME280_humidity;BME280_pressure;Samples;Min_cycle;Max_cycle;Signal;HPM_P1;HPM_P2
2022/10/28 00:03:36;;;;;;;79.85;26.92;;;;;13.40;97222.00;;;;8364757;28;20235;-70
2022/10/28 00:07:39;;;;;;;67.60;23.73;;;;;13.30;97209.00;;;;8364513;28;20212;-70
2022/10/28 00:11:42;;;;;;;55.05;21.42;;;;;13.20;97205.00;;;;8365695;28;20638;-70
2022/10/28 00:15:47;;;;;;;62.50;25.00;;;;;13.20;97204.00;;;;8363786;28;20233;-71
2022/10/28 00:19:50;;;;;;;62.33;24.25;;;;;13.20;97202.00;;;;8364200;28;20217;-71
2022/10/28 00:23:53;;;;;;;73.72;25.30;;;;;13.20;97212.00;;;;8364677;28;20726;-70
2022/10/28 00:27:56;;;;;;;68.15;22.48;;;;;13.10;97210.00;;;;8363720;28;20561;-70
2022/10/28 00:32:01;;;;;;;64.72;21.35;;;;;13.00;97216.00;;;;8364179;28;20216;-70
2022/10/28 00:36:08;;;;;;;63.85;21.45;;;;;12.80;97217.00;;;;8364171;28;20227;-70
2022/10/28 00:40:12;;;;;;;60.47;22.05;;;;;12.70;97201.00;;;;8363708;28;20231;-70
2022/10/28 00:44:47;;;;;;;948.55;60.20;;;;;12.50;97206.00;;;;8363282;28;20546;-71
2022/10/28 00:48:58;;;;;;;85.28;26.70;;;;;12.50;97211.00;;;;8363629;28;20223;-70
2022/10/28 00:53:28;;;;;;;72.85;26.02;;;;;12.60;97206.00;;;;8362982;28;20224;-70
2022/10/28 00:57:34;;;;;;;69.18;24.98;;;;;12.70;97200.00;;;;8330538;28;20216;-70
2022/10/28 01:01:37;;;;;;;69.75;25.42;;;;;12.70;97210.00;;;;8330260;28;20721;-69
2022/10/28 01:05:44;;;;;;;98.03;27.20;;;;;12.70;97205.00;;;;8329851;28;20223;-69
2022/10/28 01:09:47;;;;;;;137.25;30.08;;;;;12.60;97201.00;;;;8362934;28;20215;-70
2022/10/28 01:14:04;;;;;;;714.33;58.92;;;;;12.60;97204.00;;;;8361900;28;20315;-70
2022/10/28 01:18:19;;;;;;;1166.28;65.95;;;;;12.50;97206.00;;;;8362839;28;20277;-69
2022/10/28 01:22:27;;;;;;;619.97;40.80;;;;;12.40;97207.00;;;;8360409;28;20267;-70
2022/10/28 01:26:47;;;;;;;1194.82;70.43;;;;;12.30;97194.00;;;;8362074;28;20234;-69
2022/10/28 01:31:19;;;;;;;1228.68;72.95;;;;;11.90;97195.00;;;;8361265;28;20627;-69
2022/10/28 01:35:27;;;;;;;973.17;62.90;;;;;11.70;97200.00;;;;8362361;28;20225;-69
2022/10/28 01:39:34;;;;;;;1353.13;82.55;;;;;11.60;97202.00;;;;8362025;28;20231;-69
2022/10/28 01:43:44;;;;;;;691.88;56.97;;;;;11.40;97207.00;;;;8361801;28;20223;-70
2022/10/28 01:47:53;;;;;;;1060.38;66.85;;;;;11.40;97194.00;;;;8361902;28;20219;-69
2022/10/28 01:52:01;;;;;;;756.63;51.33;;;;;11.40;97200.00;;;;8360792;28;20222;-69
2022/10/28 01:56:09;;;;;;;1468.90;89.70;;;;;11.30;97202.00;;;;8361395;28;20224;-70
2022/10/28 02:00:13;;;;;;;969.75;64.00;;;;;11.20;97195.00;;;;8361051;28;20226;-69
2022/10/28 02:04:18;;;;;;;1168.30;68.97;;;;;11.10;97195.00;;;;8360780;28;20228;-69
2022/10/28 02:08:43;;;;;;;918.47;54.75;;;;;11.00;97196.00;;;;8360458;28;20221;-69
2022/10/28 02:12:52;;;;;;;1017.17;61.67;;;;;10.80;97192.00;;;;8361399;28;20550;-69
2022/10/28 02:17:00;;;;;;;966.60;74.72;;;;;10.80;97190.00;;;;8360630;28;20240;-69
2022/10/28 02:21:13;;;;;;;1102.47;73.22;;;;;10.90;97187.00;;;;8360546;28;20565;-69
2022/10/28 02:25:43;;;;;;;1188.45;78.68;;;;;11.00;97188.00;;;;8361146;28;20235;-70
2022/10/28 02:29:50;;;;;;;971.53;72.25;;;;;11.10;97181.00;;;;8327715;28;20551;-70
2022/10/28 02:33:58;;;;;;;1124.15;73.30;;;;;11.30;97174.00;;;;8360633;28;20228;-70
2022/10/28 02:38:09;;;;;;;1017.83;58.92;;;;;11.20;97174.00;;;;8361153;28;20216;-71
2022/10/28 02:42:38;;;;;;;1053.13;63.70;;;;;11.00;97171.00;;;;8327995;28;20678;-70
2022/10/28 02:46:45;;;;;;;842.80;54.35;;;;;10.90;97178.00;;;;8326952;28;20633;-70
2022/10/28 02:50:53;;;;;;;1219.95;69.35;;;;;10.80;97170.00;;;;8327848;28;20743;-70
2022/10/28 02:55:00;;;;;;;1444.57;93.70;;;;;10.80;97161.00;;;;8331454;28;20221;-70
2022/10/28 02:59:33;;;;;;;1154.38;71.53;;;;;10.90;97171.00;;;;8327551;28;20555;-71
2022/10/28 03:03:36;;;;;;;677.55;50.63;;;;;11.10;97169.00;;;;8326867;28;20626;-71
2022/10/28 03:08:13;;;;;;;899.78;56.97;;;;;11.10;97176.00;;;;8327782;28;20224;-70
2022/10/28 03:12:18;;;;;;;620.95;46.58;;;;;11.10;97179.00;;;;8326637;28;20213;-71
2022/10/28 03:16:21;;;;;;;422.45;38.20;;;;;11.10;97181.00;;;;8360839;28;20217;-70
2022/10/28 03:20:24;;;;;;;865.53;57.67;;;;;11.20;97174.00;;;;8360201;28;20231;-72
2022/10/28 03:25:01;;;;;;;746.70;59.30;;;;;11.40;97183.00;;;;8359845;28;20229;-71
2022/10/28 03:29:05;;;;;;;731.63;62.58;;;;;11.60;97179.00;;;;8329798;28;20326;-71
2022/10/28 03:33:39;;;;;;;936.17;71.05;;;;;11.80;97177.00;;;;8329784;28;20221;-72
2022/10/28 03:38:16;;;;;;;772.90;65.07;;;;;12.10;97172.00;;;;8332594;28;20256;-72
2022/10/28 03:42:53;;;;;;;615.00;53.42;;;;;12.20;97168.00;;;;8332975;28;20223;-72
2022/10/28 03:47:32;;;;;;;687.42;60.33;;;;;12.30;97166.00;;;;8332178;28;20262;-72
2022/10/28 03:52:05;;;;;;;741.13;59.72;;;;;12.40;97168.00;;;;8334107;28;20232;-71
2022/10/28 03:56:14;;;;;;;980.38;75.57;;;;;12.40;97166.00;;;;8332461;28;20224;-71
2022/10/28 04:00:17;;;;;;;738.42;55.50;;;;;12.40;97169.00;;;;8332354;28;20229;-70
2022/10/28 04:04:55;;;;;;;748.60;58.53;;;;;12.20;97166.00;;;;8331732;28;20225;-71
2022/10/28 04:08:59;;;;;;;658.28;53.08;;;;;12.20;97164.00;;;;8335183;28;20217;-71
2022/10/28 04:13:35;;;;;;;656.70;50.22;;;;;12.20;97166.00;;;;8331585;28;20712;-70
2022/10/28 04:18:12;;;;;;;696.30;54.58;;;;;12.10;97173.00;;;;8329442;28;20695;-69
2022/10/28 04:22:50;;;;;;;597.65;44.75;;;;;12.10;97173.00;;;;8333189;28;20217;-69
2022/10/28 04:26:59;;;;;;;913.03;57.97;;;;;12.00;97178.00;;;;8331480;28;20220;-70
2022/10/28 04:31:35;;;;;;;892.72;58.22;;;;;11.90;97168.00;;;;8330908;28;20232;-70
2022/10/28 04:36:12;;;;;;;663.70;51.72;;;;;11.80;97157.00;;;;8332822;28;20221;-70
2022/10/28 04:40:17;;;;;;;638.30;45.58;;;;;11.80;97156.00;;;;8331807;28;20217;-70
2022/10/28 04:44:50;;;;;;;286.88;35.50;;;;;11.80;97166.00;;;;8330347;28;20547;-70
2022/10/28 04:49:27;;;;;;;313.67;37.42;;;;;11.80;97169.00;;;;8330294;28;20250;-70
2022/10/28 04:54:04;;;;;;;537.03;48.10;;;;;12.00;97176.00;;;;8333985;28;20227;-70
2022/10/28 04:58:41;;;;;;;1226.80;83.03;;;;;12.10;97175.00;;;;8329402;28;20239;-69
2022/10/28 05:03:19;;;;;;;1241.70;76.72;;;;;12.20;97180.00;;;;8323807;28;20257;-70
2022/10/28 05:07:22;;;;;;;824.13;56.55;;;;;12.30;97183.00;;;;8329293;28;20220;-70
2022/10/28 05:11:59;;;;;;;388.25;40.97;;;;;12.30;97178.00;;;;8335058;28;20217;-71
2022/10/28 05:16:36;;;;;;;764.88;55.15;;;;;12.30;97180.00;;;;8327676;28;20228;-71
2022/10/28 05:21:12;;;;;;;572.03;47.80;;;;;12.30;97177.00;;;;8331190;28;20765;-71
2022/10/28 05:25:51;;;;;;;629.75;49.63;;;;;12.20;97178.00;;;;8327841;28;20224;-71
2022/10/28 05:30:25;;;;;;;567.22;45.53;;;;;12.20;97175.00;;;;8361326;28;20216;-70
2022/10/28 05:35:02;;;;;;;707.60;54.13;;;;;12.20;97169.00;;;;8328636;28;20230;-70
2022/10/28 05:39:38;;;;;;;808.78;56.05;;;;;12.10;97172.00;;;;8332219;28;20228;-70
2022/10/28 05:44:15;;;;;;;463.92;43.67;;;;;12.00;97163.00;;;;8329138;28;20228;-70
2022/10/28 05:48:53;;;;;;;791.15;61.47;;;;;12.10;97168.00;;;;8330490;28;20240;-70
2022/10/28 05:53:27;;;;;;;1053.93;69.85;;;;;12.10;97165.00;;;;8361252;28;20242;-70
2022/10/28 05:58:03;;;;;;;814.40;58.95;;;;;12.20;97168.00;;;;8328583;28;20270;-70
2022/10/28 06:02:40;;;;;;;234.00;33.70;;;;;12.20;97185.00;;;;8331204;28;20217;-70
2022/10/28 06:07:19;;;;;;;482.42;45.92;;;;;12.30;97177.00;;;;8360810;28;20228;-70
2022/10/28 06:11:52;;;;;;;459.33;45.00;;;;;12.40;97188.00;;;;8361796;28;20224;-70
2022/10/28 06:16:29;;;;;;;405.25;41.13;;;;;12.50;97187.00;;;;8360114;28;20550;-70
2022/10/28 06:21:06;;;;;;;488.23;44.47;;;;;12.60;97192.00;;;;8327235;28;20221;-70
2022/10/28 06:25:45;;;;;;;781.40;54.30;;;;;12.60;97189.00;;;;8330624;28;20271;-69
2022/10/28 06:30:19;;;;;;;603.42;47.28;;;;;12.70;97197.00;;;;8327807;28;20299;-69
2022/10/28 06:34:55;;;;;;;745.65;58.53;;;;;12.70;97196.00;;;;8328827;28;20232;-70
2022/10/28 06:39:32;;;;;;;245.45;33.63;;;;;12.80;97214.00;;;;8328404;28;20224;-71
2022/10/28 06:44:10;;;;;;;503.05;45.65;;;;;12.80;97220.00;;;;8360426;28;20224;-71
2022/10/28 06:48:44;;;;;;;368.25;38.15;;;;;12.90;97214.00;;;;8360198;28;20224;-70
2022/10/28 06:53:21;;;;;;;399.10;39.25;;;;;13.00;97233.00;;;;8361133;28;20298;-70
2022/10/28 06:57:58;;;;;;;430.25;39.85;;;;;13.00;97239.00;;;;8360304;28;20221;-71
2022/10/28 07:02:37;;;;;;;324.45;36.30;;;;;13.20;97234.00;;;;8327730;28;20705;-70
2022/10/28 07:07:11;;;;;;;288.52;32.35;;;;;13.50;97246.00;;;;8331257;28;20225;-71
2022/10/28 07:11:48;;;;;;;356.75;34.75;;;;;13.60;97258.00;;;;8333380;28;20217;-71
2022/10/28 07:16:04;;;;;;;162.68;27.65;;;;;13.80;97252.00;;;;8334103;28;20217;-71
2022/10/28 07:20:42;;;;;;;513.20;44.17;;;;;13.80;97245.00;;;;8365918;28;20258;-72
2022/10/28 07:25:16;;;;;;;341.45;34.28;;;;;13.90;97244.00;;;;8365661;28;20239;-72
2022/10/28 07:29:53;;;;;;;183.02;27.50;;;;;14.00;97242.00;;;;8365682;28;20208;-72
2022/10/28 07:34:30;;;;;;;58.05;22.13;;;;;14.10;97244.00;;;;8366133;28;20224;-80
2022/10/28 07:39:09;;;;;;;50.88;20.40;;;;;14.30;97265.00;;;;8335440;28;20212;-80
2022/10/28 07:43:46;;;;;;;52.38;20.13;;;;;14.40;97274.00;;;;8332131;28;20301;-77
2022/10/28 07:48:02;;;;;;;52.92;20.75;;;;;14.40;97280.00;;;;8333975;28;20300;-77
2022/10/28 07:52:36;;;;;;;56.92;20.95;;;;;14.60;97285.00;;;;8362207;28;20266;-77
2022/10/28 07:57:15;;;;;;;45.90;18.50;;;;;14.60;97282.00;;;;8364893;28;20225;-77
2022/10/28 08:01:49;;;;;;;55.58;20.83;;;;;14.70;97286.00;;;;8364418;28;20220;-76
2022/10/28 08:06:25;;;;;;;52.28;21.75;;;;;14.80;97287.00;;;;8364527;28;20229;-76
2022/10/28 08:10:28;;;;;;;37.65;17.98;;;;;14.90;97287.00;;;;8364536;28;20243;-76
2022/10/28 08:15:13;;;;;;;46.38;19.77;;;;;15.00;97278.00;;;;8365105;28;20216;-77
2022/10/28 08:19:41;;;;;;;41.55;18.02;;;;;15.10;97274.00;;;;8362205;28;20224;-77
2022/10/28 08:24:18;;;;;;;40.58;16.55;;;;;15.20;97273.00;;;;8361756;28;20246;-77
2022/10/28 08:28:55;;;;;;;35.38;15.13;;;;;15.40;97266.00;;;;8360156;28;20232;-76
2022/10/28 08:33:32;;;;;;;30.67;15.15;;;;;15.50;97286.00;;;;8363549;28;20623;-74
2022/10/28 08:38:10;;;;;;;31.00;15.25;;;;;15.70;97271.00;;;;8363082;28;20292;-77
2022/10/28 08:42:46;;;;;;;36.35;16.08;;;;;15.60;97273.00;;;;8363336;28;20212;-75
2022/10/28 08:47:19;;;;;;;33.85;16.02;;;;;15.60;97253.00;;;;8362774;28;20216;-76
2022/10/28 08:51:59;;;;;;;40.85;14.88;;;;;15.50;97245.00;;;;8363336;28;20216;-75
2022/10/28 08:56:35;;;;;;;33.75;15.35;;;;;15.50;97246.00;;;;8361524;28;20216;-77
2022/10/28 09:01:17;;;;;;;40.67;17.17;;;;;15.60;97240.00;;;;8362624;28;20221;-75
2022/10/28 09:05:48;;;;;;;38.30;15.88;;;;;15.70;97243.00;;;;8363155;28;20232;-76
2022/10/28 09:09:53;;;;;;;39.83;17.10;;;;;15.70;97243.00;;;;8363087;28;20574;-76
2022/10/28 09:14:37;;;;;;;34.65;14.88;;;;;15.80;97248.00;;;;8327854;28;20666;-76
2022/10/28 09:19:04;;;;;;;40.63;15.10;;;;;15.70;97241.00;;;;8321354;28;20243;-75
2022/10/28 09:23:43;;;;;;;32.83;15.07;;;;;15.50;97237.00;;;;8329307;28;20252;-75
2022/10/28 09:28:18;;;;;;;35.22;14.80;;;;;15.60;97231.00;;;;8329708;28;20259;-75
2022/10/28 09:32:54;;;;;;;29.92;15.32;;;;;15.70;97232.00;;;;8328391;28;20221;-75
2022/10/28 09:37:35;;;;;;;23.50;13.63;;;;;15.90;97237.00;;;;8328614;28;20275;-77
2022/10/28 09:42:12;;;;;;;24.10;12.50;;;;;16.00;97240.00;;;;8361079;28;20251;-77
2022/10/28 09:46:52;;;;;;;18.55;11.43;;;;;16.10;97238.00;;;;8330935;28;20303;-77
2022/10/28 09:51:10;;;;;;;18.60;10.88;;;;;16.30;97244.00;;;;8328117;28;20579;-77
2022/10/28 09:55:43;;;;;;;18.42;10.63;;;;;16.50;97249.00;;;;8331734;28;20213;-77
2022/10/28 10:00:17;;;;;;;17.38;10.30;;;;;16.80;97248.00;;;;8327843;28;20539;-76
2022/10/28 10:04:52;;;;;;;15.38;8.23;;;;;17.10;97239.00;;;;8330454;28;20264;-75
2022/10/28 10:09:30;;;;;;;14.30;7.10;;;;;17.40;97248.00;;;;8327193;28;20266;-76
2022/10/28 10:14:04;;;;;;;13.35;6.18;;;;;17.70;97253.00;;;;8327942;28;20703;-76
2022/10/28 10:18:47;;;;;;;9.05;5.82;;;;;17.80;97254.00;;;;8326946;28;20220;-76
2022/10/28 10:23:27;;;;;;;9.13;5.88;;;;;17.90;97249.00;;;;8360275;28;20239;-76
2022/10/28 10:28:01;;;;;;;7.47;4.50;;;;;18.00;97249.00;;;;8360263;28;20228;-75
2022/10/28 10:32:38;;;;;;;10.73;5.53;;;;;18.10;97243.00;;;;8360216;28;20220;-80
2022/10/28 10:37:21;;;;;;;8.60;5.18;;;;;18.10;97242.00;;;;8326726;28;20213;-79
2022/10/28 10:41:34;;;;;;;7.63;4.53;;;;;18.30;97234.00;;;;8328474;28;20217;-79
2022/10/28 10:46:13;;;;;;;8.18;4.13;;;;;18.40;97233.00;;;;8326642;28;20271;-79
2022/10/28 10:50:46;;;;;;;6.50;4.55;;;;;18.50;97239.00;;;;8327767;28;20220;-78
2022/10/28 10:55:25;;;;;;;6.78;4.13;;;;;18.70;97225.00;;;;8329058;28;20228;-78
2022/10/28 10:59:56;;;;;;;10.02;4.18;;;;;18.70;97228.00;;;;8325685;28;20278;-77
2022/10/28 12:15:21;;;;;;;4.55;2.47;;;;;21.00;97183.00;;;;10171331;23;20212;-78
2022/10/28 12:19:53;;;;;;;7.85;2.83;;;;;21.20;97176.00;;;;10192150;23;20224;-79
2022/10/28 12:24:28;;;;;;;13.27;3.38;;;;;21.60;97176.00;;;;10197706;23;20193;-76
2022/10/28 12:28:37;;;;;;;3.15;2.40;;;;;21.80;97172.00;;;;10196325;23;20450;-77
2022/10/28 12:33:08;;;;;;;4.38;2.70;;;;;22.00;97170.00;;;;10197235;23;20197;-76
2022/10/28 12:37:18;;;;;;;8.35;2.70;;;;;22.10;97170.00;;;;10148756;23;20245;-76
2022/10/28 12:41:49;;;;;;;6.57;2.55;;;;;22.30;97157.00;;;;10196384;23;20186;-76
2022/10/28 12:45:55;;;;;;;5.22;2.50;;;;;22.40;97154.00;;;;10195880;23;20194;-76
2022/10/28 12:50:32;;;;;;;5.57;2.47;;;;;22.40;97146.00;;;;10198074;23;20564;-76
2022/10/28 12:54:47;;;;;;;6.57;2.72;;;;;22.60;97147.00;;;;10195188;23;20209;-76
2022/10/28 12:59:04;;;;;;;4.35;2.50;;;;;22.70;97141.00;;;;10194775;23;20216;-75
2022/10/28 13:03:32;;;;;;;13.82;2.80;;;;;22.90;97146.00;;;;10196469;23;20197;-75
2022/10/28 13:07:52;;;;;;;4.55;2.75;;;;;23.00;97142.00;;;;10185385;23;21081;-75
2022/10/28 13:12:54;;;;;;;3.35;2.40;;;;;23.10;97142.00;;;;10183750;23;20601;-74
2022/10/28 13:17:14;;;;;;;3.38;2.30;;;;;23.20;97132.00;;;;9988066;23;20197;-75
2022/10/28 13:21:42;;;;;;;4.50;2.72;;;;;23.20;97129.00;;;;9988292;23;20204;-75
2022/10/28 13:26:37;;;;;;;4.70;2.80;;;;;23.00;97137.00;;;;10168527;23;20604;-76
2022/10/28 13:31:15;;;;;;;8.15;3.08;;;;;22.80;97125.00;;;;10185656;23;20198;-76
2022/10/28 13:35:51;;;;;;;5.30;2.80;;;;;22.50;97129.00;;;;10184406;23;20249;-72
2022/10/28 13:40:36;;;;;;;5.32;2.80;;;;;22.40;97131.00;;;;10185413;23;20247;-72
2022/10/28 13:45:27;;;;;;;9.52;3.30;;;;;22.30;97135.00;;;;10184709;23;20261;-74
2022/10/28 13:50:13;;;;;;;5.50;2.80;;;;;22.30;97139.00;;;;10185944;23;20500;-72
2022/10/28 13:54:30;;;;;;;6.82;3.28;;;;;22.20;97137.00;;;;10183689;23;20509;-77
2022/10/28 13:59:01;;;;;;;4.53;3.03;;;;;22.30;97121.00;;;;10183354;23;20213;-80
2022/10/28 14:03:38;;;;;;;7.97;3.35;;;;;22.30;97124.00;;;;10185019;23;20289;-81
2022/10/28 14:07:53;;;;;;;5.00;3.95;;;;;22.20;97121.00;;;;10183676;23;20186;-82
2022/10/28 14:12:22;;;;;;;4.53;3.30;;;;;22.10;97128.00;;;;10184793;23;20513;-82
2022/10/28 14:16:29;;;;;;;8.48;3.92;;;;;21.90;97124.00;;;;10183860;23;20282;-81
2022/10/28 14:21:00;;;;;;;7.85;4.20;;;;;21.60;97122.00;;;;10185062;23;20198;-81
2022/10/28 14:25:39;;;;;;;5.43;3.90;;;;;21.40;97119.00;;;;10184235;23;20198;-81
2022/10/28 14:29:48;;;;;;;7.20;3.80;;;;;21.30;97115.00;;;;10183975;23;20194;-80
2022/10/28 14:34:43;;;;;;;5.13;3.92;;;;;21.20;97122.00;;;;10183549;23;20206;-81
2022/10/28 14:39:17;;;;;;;7.95;3.88;;;;;21.00;97123.00;;;;10184465;23;20198;-81
2022/10/28 14:43:41;;;;;;;6.50;4.00;;;;;20.80;97121.00;;;;10184178;23;20194;-80
2022/10/28 14:48:26;;;;;;;7.20;3.75;;;;;20.70;97122.00;;;;10184808;23;20201;-81
2022/10/28 14:52:35;;;;;;;7.22;3.75;;;;;20.60;97122.00;;;;10155058;23;20186;-80
2022/10/28 14:56:39;;;;;;;5.45;3.50;;;;;20.50;97113.00;;;;10184779;23;20248;-80
2022/10/28 15:00:49;;;;;;;10.75;3.95;;;;;20.40;97129.00;;;;10183370;23;20201;-80
2022/10/28 15:05:01;;;;;;;8.70;4.68;;;;;20.20;97125.00;;;;10183669;23;20201;-80
2022/10/28 15:09:16;;;;;;;7.63;4.40;;;;;20.00;97128.00;;;;10183717;23;20197;-81
2022/10/28 15:13:21;;;;;;;10.35;5.85;;;;;19.90;97130.00;;;;10183889;23;20278;-81
2022/10/28 15:17:25;;;;;;;12.27;7.15;;;;;19.70;97128.00;;;;10183058;23;20504;-80
2022/10/28 15:21:28;;;;;;;12.30;7.47;;;;;19.60;97116.00;;;;10183919;23;20217;-81
2022/10/28 15:26:07;;;;;;;7.13;4.50;;;;;19.40;97110.00;;;;10183570;23;20197;-81
2022/10/28 15:30:15;;;;;;;8.43;5.15;;;;;19.30;97102.00;;;;10183048;23;20202;-81
2022/10/28 15:34:20;;;;;;;11.73;5.57;;;;;19.20;97111.00;;;;10183146;23;20198;-81
2022/10/28 15:39:05;;;;;;;11.70;4.97;;;;;19.00;97105.00;;;;10183022;23;20201;-80
2022/10/28 15:43:19;;;;;;;5.43;4.55;;;;;18.90;97102.00;;;;10176216;23;20194;-80
2022/10/28 15:47:44;;;;;;;12.00;4.53;;;;;18.80;97111.00;;;;10182105;23;20717;-80
2022/10/28 15:52:22;;;;;;;10.85;4.90;;;;;18.70;97098.00;;;;10179990;23;20337;-77
2022/10/28 15:56:57;;;;;;;9.43;4.55;;;;;18.60;97094.00;;;;10183147;23;20229;-75
2022/10/28 16:01:39;;;;;;;6.68;5.07;;;;;18.40;97099.00;;;;10180911;23;20194;-76
2022/10/28 16:06:28;;;;;;;21.80;11.82;;;;;18.30;97093.00;;;;10182669;23;20281;-76
2022/10/28 16:10:35;;;;;;;9.20;6.28;;;;;18.30;97095.00;;;;10129361;23;20193;-76
2022/10/28 16:14:39;;;;;;;7.95;5.45;;;;;18.20;97095.00;;;;10183578;23;20529;-77
2022/10/28 16:19:24;;;;;;;14.00;8.90;;;;;18.10;97091.00;;;;10182531;23;20198;-76
2022/10/28 16:23:55;;;;;;;10.13;7.45;;;;;18.00;97091.00;;;;10183280;23;20189;-76
2022/10/28 16:28:29;;;;;;;11.05;5.70;;;;;18.00;97102.00;;;;10183130;23;20225;-75
2022/10/28 16:32:37;;;;;;;9.95;5.57;;;;;17.90;97122.00;;;;10167465;23;20493;-76
2022/10/28 16:36:42;;;;;;;10.57;4.80;;;;;17.80;97126.00;;;;10182271;23;20198;-75
2022/10/28 16:40:45;;;;;;;18.63;13.75;;;;;17.70;97133.00;;;;10185267;23;20202;-76
2022/10/28 16:44:53;;;;;;;9.43;5.75;;;;;17.60;97139.00;;;;10185691;23;20194;-76
2022/10/28 16:49:31;;;;;;;10.50;5.57;;;;;17.50;97138.00;;;;10185997;23;20194;-75
2022/10/28 16:54:10;;;;;;;8.25;5.35;;;;;17.30;97142.00;;;;10184441;23;20537;-76
2022/10/28 16:58:14;;;;;;;11.00;6.03;;;;;17.10;97157.00;;;;10174333;23;20647;-76
2022/10/28 17:02:52;;;;;;;12.38;6.10;;;;;16.90;97155.00;;;;10186663;23;20198;-76
2022/10/28 17:06:56;;;;;;;12.90;8.77;;;;;16.60;97149.00;;;;10184812;23;20194;-76
2022/10/28 17:11:00;;;;;;;11.32;6.60;;;;;16.40;97157.00;;;;10183951;23;20197;-77
2022/10/28 17:15:37;;;;;;;14.88;7.18;;;;;16.10;97162.00;;;;10185717;23;20213;-76
2022/10/28 17:19:40;;;;;;;11.70;6.53;;;;;15.80;97170.00;;;;10184034;23;20190;-75
2022/10/28 17:24:19;;;;;;;10.40;5.70;;;;;15.50;97166.00;;;;10184096;23;20232;-75
2022/10/28 17:28:54;;;;;;;8.30;5.63;;;;;15.20;97165.00;;;;10184864;23;20217;-75
2022/10/28 17:33:31;;;;;;;14.38;8.38;;;;;15.10;97144.00;;;;10184689;23;20194;-75
2022/10/28 17:38:08;;;;;;;10.40;6.70;;;;;15.00;97148.00;;;;10184853;23;20263;-76
2022/10/28 17:42:11;;;;;;;11.70;8.05;;;;;15.00;97139.00;;;;10136561;23;20578;-76
2022/10/28 17:46:16;;;;;;;21.13;8.68;;;;;15.00;97129.00;;;;10180615;23;20263;-75
2022/10/28 17:50:19;;;;;;;46.15;35.33;;;;;15.10;97113.00;;;;10185029;23;20212;-75
2022/10/28 17:54:56;;;;;;;21.08;13.75;;;;;15.30;97113.00;;;;10182666;23;20253;-75
2022/10/28 17:59:00;;;;;;;17.38;9.15;;;;;15.50;97127.00;;;;10184099;23;20753;-76
2022/10/28 18:03:38;;;;;;;15.23;8.25;;;;;15.70;97137.00;;;;10183858;23;20276;-76
2022/10/28 18:07:41;;;;;;;49.13;32.58;;;;;15.90;97126.00;;;;10135717;23;20226;-76
2022/10/28 18:11:44;;;;;;;17.48;8.75;;;;;16.00;97139.00;;;;10181315;23;20305;-76
2022/10/28 18:15:47;;;;;;;18.90;12.35;;;;;16.20;97143.00;;;;10183081;23;20214;-75
2022/10/28 18:20:26;;;;;;;12.75;7.50;;;;;16.20;97131.00;;;;10181290;23;20613;-76
2022/10/28 18:24:29;;;;;;;16.83;7.78;;;;;16.20;97136.00;;;;10184123;23;20628;-76
2022/10/28 18:29:04;;;;;;;17.98;7.03;;;;;16.10;97124.00;;;;10183338;23;20190;-76
2022/10/28 18:33:07;;;;;;;10.50;6.50;;;;;16.10;97127.00;;;;10184085;23;20201;-76
2022/10/28 18:37:45;;;;;;;16.30;7.30;;;;;16.00;97122.00;;;;10183154;23;20493;-76
2022/10/28 18:41:50;;;;;;;11.07;7.32;;;;;16.00;97116.00;;;;10183593;23;20282;-76
2022/10/28 18:46:27;;;;;;;15.00;8.02;;;;;16.00;97113.00;;;;10183854;23;20542;-76
2022/10/28 18:51:02;;;;;;;16.83;8.48;;;;;16.00;97108.00;;;;10183615;23;20201;-75
2022/10/28 18:55:38;;;;;;;19.08;8.95;;;;;16.00;97109.00;;;;10182426;23;20205;-76
2022/10/28 18:59:41;;;;;;;15.15;8.75;;;;;16.00;97100.00;;;;10183175;23;20198;-76
2022/10/28 19:04:16;;;;;;;13.85;7.80;;;;;16.00;97102.00;;;;10182663;23;20201;-75
2022/10/28 19:08:19;;;;;;;16.00;8.38;;;;;16.10;97106.00;;;;10182844;23;20285;-76
2022/10/28 19:12:24;;;;;;;16.90;7.82;;;;;16.10;97103.00;;;;10183102;23;20628;-76
2022/10/28 19:16:28;;;;;;;14.88;8.15;;;;;16.00;97105.00;;;;10183064;23;20256;-76
2022/10/28 19:21:07;;;;;;;18.98;8.05;;;;;16.00;97093.00;;;;10182695;23;20194;-75
2022/10/28 19:25:10;;;;;;;18.20;7.70;;;;;15.90;97098.00;;;;10183223;23;20273;-76
2022/10/28 19:29:14;;;;;;;12.70;7.80;;;;;15.80;97095.00;;;;10182849;23;20198;-75
2022/10/28 19:33:48;;;;;;;21.33;8.93;;;;;15.70;97104.00;;;;10181742;23;20212;-76
2022/10/28 19:38:25;;;;;;;20.90;8.23;;;;;15.60;97107.00;;;;10183446;23;20261;-77
2022/10/28 19:43:02;;;;;;;16.77;8.52;;;;;15.70;97103.00;;;;10182747;23;20196;-76
2022/10/28 19:47:41;;;;;;;11.38;8.05;;;;;15.60;97104.00;;;;10181455;23;20272;-76
2022/10/28 19:52:15;;;;;;;20.33;8.20;;;;;15.50;97111.00;;;;10183741;23;20520;-76
2022/10/28 19:56:18;;;;;;;19.85;8.38;;;;;15.50;97125.00;;;;10133080;23;20241;-76
2022/10/28 20:00:22;;;;;;;15.20;7.70;;;;;15.50;97115.00;;;;10180415;23;20294;-75
2022/10/28 20:05:00;;;;;;;15.57;7.43;;;;;15.50;97122.00;;;;10182386;23;20205;-77
2022/10/28 20:09:03;;;;;;;18.08;8.98;;;;;15.50;97120.00;;;;10182216;23;20194;-76
2022/10/28 20:13:40;;;;;;;20.88;9.27;;;;;15.40;97124.00;;;;10182408;23;20651;-75
2022/10/28 20:18:17;;;;;;;20.80;7.50;;;;;15.20;97137.00;;;;10184744;23;20210;-76
2022/10/28 20:22:55;;;;;;;17.23;8.32;;;;;15.00;97133.00;;;;10183071;23;20190;-75
2022/10/28 20:26:59;;;;;;;13.95;7.47;;;;;14.90;97135.00;;;;10185731;23;20218;-76
2022/10/28 20:31:05;;;;;;;13.05;7.57;;;;;14.70;97139.00;;;;10186794;23;20616;-75
2022/10/28 20:35:08;;;;;;;16.25;8.85;;;;;14.70;97136.00;;;;10184603;23;20234;-75
2022/10/28 20:39:16;;;;;;;14.35;8.85;;;;;14.70;97140.00;;;;10185950;23;20217;-76
2022/10/28 20:43:49;;;;;;;16.63;8.82;;;;;14.60;97135.00;;;;10184805;23;20194;-76
2022/10/28 20:48:23;;;;;;;12.25;7.13;;;;;14.50;97137.00;;;;10185392;23;20202;-75
2022/10/28 20:53:00;;;;;;;18.10;8.13;;;;;14.30;97138.00;;;;10185253;23;20186;-75
2022/10/28 20:57:04;;;;;;;20.40;9.07;;;;;14.20;97133.00;;;;10185725;23;20225;-77
2022/10/28 21:01:39;;;;;;;20.45;10.00;;;;;14.30;97129.00;;;;10139443;23;20479;-79
2022/10/28 21:05:43;;;;;;;21.67;9.95;;;;;14.50;97134.00;;;;10186848;23;20190;-79
2022/10/28 21:09:46;;;;;;;22.92;9.70;;;;;14.50;97136.00;;;;10185088;23;20206;-79
2022/10/28 21:14:24;;;;;;;23.13;9.30;;;;;14.50;97123.00;;;;10182139;23;20256;-79
2022/10/28 21:18:59;;;;;;;19.55;9.90;;;;;14.50;97113.00;;;;10185118;23;20206;-79
2022/10/28 21:23:02;;;;;;;18.90;8.35;;;;;14.40;97119.00;;;;10184573;23;20590;-78
2022/10/28 21:27:34;;;;;;;16.85;9.48;;;;;14.40;97122.00;;;;10184601;23;20269;-76
2022/10/28 21:31:39;;;;;;;21.80;9.13;;;;;14.30;97119.00;;;;10184389;23;20197;-77
2022/10/28 21:35:42;;;;;;;27.38;9.63;;;;;14.30;97114.00;;;;10185527;23;20499;-78
2022/10/28 21:39:45;;;;;;;19.50;9.30;;;;;14.30;97124.00;;;;10184027;23;20202;-78
2022/10/28 21:43:50;;;;;;;22.00;9.18;;;;;14.40;97122.00;;;;10185207;23;20198;-78
2022/10/28 21:47:55;;;;;;;19.63;9.40;;;;;14.40;97114.00;;;;10184585;23;20202;-78
2022/10/28 21:52:30;;;;;;;25.60;9.95;;;;;14.30;97114.00;;;;10184516;23;20190;-77
2022/10/28 21:56:33;;;;;;;27.35;9.55;;;;;14.30;97109.00;;;;10184144;23;20208;-78
2022/10/28 22:00:36;;;;;;;22.25;10.10;;;;;14.40;97110.00;;;;10184178;23;20513;-77
2022/10/28 22:04:40;;;;;;;26.02;10.50;;;;;14.40;97114.00;;;;10178702;23;20194;-78
2022/10/28 22:08:43;;;;;;;23.75;10.38;;;;;14.30;97110.00;;;;10183789;23;20206;-80
2022/10/28 22:12:47;;;;;;;24.48;10.10;;;;;14.30;97108.00;;;;10184186;23;20561;-77
2022/10/28 22:17:21;;;;;;;23.38;10.15;;;;;14.20;97113.00;;;;10184242;23;20206;-79
2022/10/28 22:21:28;;;;;;;24.60;10.90;;;;;14.20;97113.00;;;;10184277;23;20197;-79
2022/10/28 22:26:02;;;;;;;25.45;10.57;;;;;14.20;97119.00;;;;10185058;23;20194;-79
2022/10/28 22:30:05;;;;;;;19.90;9.25;;;;;14.10;97120.00;;;;10185729;23;20194;-79
2022/10/28 22:34:08;;;;;;;20.55;10.13;;;;;14.00;97122.00;;;;10184270;23;20190;-78
2022/10/28 22:38:13;;;;;;;20.83;9.90;;;;;13.90;97118.00;;;;10184540;23;20202;-79